createdAt,value
2018-12-23T00:01:43.546Z,0.50
2018-12-23T00:04:11.062Z,0.53
2018-12-23T00:06:38.558Z,0.50
2018-12-23T00:09:06.117Z,0.37
2018-12-23T00:11:33.688Z,0.20
2018-12-23T00:14:01.190Z,0.23
2018-12-23T00:16:28.685Z,0.63
2018-12-23T00:18:56.181Z,0.27
2018-12-23T00:21:23.678Z,0.20
2018-12-23T00:23:51.365Z,0.20
2018-12-23T00:26:18.882Z,0.30
2018-12-23T00:28:46.381Z,0.17
2018-12-23T00:31:13.881Z,0.30
2018-12-23T00:33:41.382Z,0.23
2018-12-23T00:36:08.877Z,0.20
2018-12-23T00:38:36.374Z,0.30
2018-12-23T00:41:03.868Z,0.40
2018-12-23T00:43:31.365Z,0.27
2018-12-23T00:45:59.125Z,0.40
2018-12-23T00:48:26.625Z,0.30
2018-12-23T00:50:54.126Z,0.50
2018-12-23T00:53:21.622Z,0.10
2018-12-23T00:55:49.121Z,0.30
2018-12-23T00:58:16.617Z,0.40
2018-12-23T01:00:44.113Z,0.30
2018-12-23T01:03:11.610Z,0.10
2018-12-23T01:05:39.136Z,0.33
2018-12-23T01:08:06.641Z,0.20
2018-12-23T01:10:34.141Z,0.10
2018-12-23T01:13:01.646Z,0.20
2018-12-23T01:15:29.149Z,0.40
2018-12-23T01:17:56.645Z,0.60
2018-12-23T01:20:24.147Z,0.10
2018-12-23T01:22:51.646Z,0.20
2018-12-23T01:25:19.148Z,0.10
2018-12-23T01:27:46.645Z,0.23
2018-12-23T01:30:14.144Z,0.20
2018-12-23T01:32:41.641Z,0.37
2018-12-23T01:35:09.138Z,0.63
2018-12-23T01:37:36.634Z,0.20
2018-12-23T01:40:05.581Z,0.10
2018-12-23T01:42:33.082Z,0.23
2018-12-23T01:45:00.582Z,0.10
2018-12-23T01:47:28.077Z,0.53
2018-12-23T01:49:55.578Z,0.30
2018-12-23T01:52:23.079Z,0.10
2018-12-23T01:54:50.581Z,0.10
2018-12-23T01:57:18.077Z,0.20
2018-12-23T01:59:45.588Z,0.10
2018-12-23T02:02:13.081Z,0.20
2018-12-23T02:04:40.585Z,0.20
2018-12-23T02:07:08.081Z,0.37
2018-12-23T02:09:35.578Z,0.20
2018-12-23T02:12:03.106Z,0.80
2018-12-23T02:14:30.627Z,0.10
2018-12-23T02:16:58.132Z,0.10
2018-12-23T02:19:25.638Z,0.87
2018-12-23T02:21:53.138Z,0.20
2018-12-23T02:24:20.634Z,0.20
2018-12-23T02:26:48.133Z,0.20
2018-12-23T02:29:15.633Z,0.20
2018-12-23T02:31:43.133Z,0.10
2018-12-23T02:34:10.767Z,0.10
2018-12-23T02:36:38.270Z,0.20
2018-12-23T02:39:07.625Z,0.17
2018-12-23T02:41:35.117Z,0.20
2018-12-23T02:44:02.693Z,0.27
2018-12-23T02:46:30.197Z,0.30
2018-12-23T02:48:57.693Z,0.10
2018-12-23T02:51:25.186Z,0.20
2018-12-23T02:53:52.681Z,0.30
2018-12-23T02:56:20.181Z,1.20
2018-12-23T02:58:47.679Z,0.20
2018-12-23T03:01:15.173Z,0.17
2018-12-23T03:03:42.681Z,0.20
2018-12-23T03:06:10.598Z,0.10
2018-12-23T03:08:38.106Z,0.33
2018-12-23T03:11:05.604Z,0.40
2018-12-23T03:13:33.104Z,0.60
2018-12-23T03:16:00.604Z,0.23
2018-12-23T03:18:28.121Z,0.40
2018-12-23T03:20:55.628Z,0.20
2018-12-23T03:23:23.126Z,0.27
2018-12-23T03:25:50.617Z,0.30
2018-12-23T03:28:18.115Z,0.63
2018-12-23T03:30:45.615Z,0.40
2018-12-23T03:33:13.398Z,0.40
2018-12-23T03:35:41.005Z,0.20
2018-12-23T03:38:08.506Z,0.50
2018-12-23T03:40:36.004Z,0.50
2018-12-23T03:43:03.502Z,0.50
2018-12-23T03:45:31.446Z,0.63
2018-12-23T03:47:59.050Z,0.30
2018-12-23T03:50:26.659Z,0.37
2018-12-23T03:52:54.159Z,0.50
2018-12-23T03:55:21.661Z,0.70
2018-12-23T03:57:49.157Z,0.30
2018-12-23T04:00:16.878Z,0.50
2018-12-23T04:02:44.377Z,0.37
2018-12-23T04:05:11.874Z,0.40
2018-12-23T04:07:39.370Z,0.40
2018-12-23T04:10:06.873Z,0.93
2018-12-23T04:12:34.368Z,0.50
2018-12-23T04:15:01.878Z,0.27
2018-12-23T04:17:29.373Z,0.30
2018-12-23T04:19:56.878Z,0.37
2018-12-23T04:22:24.394Z,0.53
2018-12-23T04:24:51.894Z,0.27
2018-12-23T04:27:19.395Z,0.50
2018-12-23T04:29:46.894Z,0.70
2018-12-23T04:32:14.400Z,0.30
2018-12-23T04:34:41.901Z,0.30
2018-12-23T04:37:09.407Z,0.63
2018-12-23T04:39:36.911Z,0.50
2018-12-23T04:42:04.411Z,0.33
2018-12-23T04:44:31.911Z,0.70
2018-12-23T04:46:59.409Z,0.50
2018-12-23T04:49:26.905Z,0.50
2018-12-23T04:51:54.406Z,0.40
2018-12-23T04:54:21.910Z,0.30
2018-12-23T04:56:49.417Z,0.43
2018-12-23T04:59:16.926Z,0.50
2018-12-23T05:01:44.430Z,1.10
2018-12-23T05:04:12.054Z,1.60
2018-12-23T05:06:43.457Z,0.40
2018-12-23T05:09:09.070Z,0.50
2018-12-23T05:11:36.571Z,0.30
2018-12-23T05:14:04.176Z,0.50
2018-12-23T05:16:31.682Z,0.60
2018-12-23T05:18:59.198Z,0.30
2018-12-23T05:21:27.016Z,0.60
2018-12-23T05:23:54.510Z,0.70
2018-12-23T05:26:22.005Z,0.50
2018-12-23T05:28:49.513Z,0.50
2018-12-23T05:31:17.013Z,0.50
2018-12-23T05:33:44.513Z,1.70
2018-12-23T05:36:12.006Z,0.50
2018-12-23T05:38:39.509Z,0.63
2018-12-23T05:41:07.120Z,0.70
2018-12-23T05:43:34.621Z,0.50
2018-12-23T05:46:02.125Z,0.63
2018-12-23T05:48:29.625Z,0.83
2018-12-23T05:50:57.261Z,0.80
2018-12-23T05:53:25.385Z,0.40
2018-12-23T05:55:53.007Z,0.60
2018-12-23T05:58:20.790Z,0.73
2018-12-23T06:00:48.289Z,0.60
2018-12-23T06:03:16.988Z,0.30
2018-12-23T06:05:45.413Z,0.23
2018-12-23T06:08:13.403Z,0.70
2018-12-23T06:10:41.057Z,0.57
2018-12-23T06:13:08.555Z,0.57
2018-12-23T06:15:37.052Z,0.50
2018-12-23T06:18:05.422Z,0.60
2018-12-23T06:20:34.524Z,0.50
2018-12-23T06:23:02.078Z,0.70
2018-12-23T06:25:29.581Z,0.73
2018-12-23T06:27:57.078Z,0.43
2018-12-23T06:30:25.586Z,0.23
2018-12-23T06:32:54.159Z,0.80
2018-12-23T06:35:22.504Z,0.63
2018-12-23T06:37:50.039Z,0.30
2018-12-23T06:40:17.549Z,0.43
2018-12-23T06:42:46.231Z,0.70
2018-12-23T06:45:14.181Z,0.53
2018-12-23T06:47:41.964Z,1.00
2018-12-23T06:50:10.821Z,0.63
2018-12-23T06:52:39.050Z,0.20
2018-12-23T06:55:07.381Z,0.40
2018-12-23T06:57:36.253Z,0.67
2018-12-23T07:00:05.298Z,0.50
2018-12-23T07:02:33.745Z,0.83
2018-12-23T07:05:01.329Z,2.17
2018-12-23T07:07:29.664Z,2.03
2018-12-23T07:09:57.675Z,4.30
2018-12-23T07:12:25.175Z,6.97
2018-12-23T07:14:52.671Z,6.77
2018-12-23T07:17:20.281Z,13.10
2018-12-23T07:19:47.781Z,7.10
2018-12-23T07:22:16.550Z,9.40
2018-12-23T07:24:45.155Z,10.63
2018-12-23T07:27:12.943Z,8.50
2018-12-23T07:29:40.678Z,11.00
2018-12-23T07:32:08.208Z,7.00
2018-12-23T07:34:36.478Z,4.63
2018-12-23T07:37:05.304Z,7.43
2018-12-23T07:39:33.300Z,25.40
2018-12-23T07:42:01.257Z,14.27
2018-12-23T07:44:29.443Z,9.67
2018-12-23T07:46:57.453Z,9.87
2018-12-23T07:49:26.046Z,7.90
2018-12-23T07:51:54.029Z,10.27
2018-12-23T07:54:21.722Z,8.50
2018-12-23T07:56:49.338Z,9.40
2018-12-23T07:59:17.679Z,8.67
2018-12-23T08:01:46.274Z,14.03
2018-12-23T08:04:14.410Z,8.47
2018-12-23T08:06:42.388Z,8.73
2018-12-23T08:09:09.994Z,6.90
2018-12-23T08:11:37.773Z,8.00
2018-12-23T08:14:06.338Z,7.17
2018-12-23T08:16:33.899Z,8.33
2018-12-23T08:19:01.510Z,6.10
2018-12-23T08:21:29.106Z,7.23
2018-12-23T08:23:57.470Z,22.30
2018-12-23T08:26:26.061Z,11.93
2018-12-23T08:28:53.619Z,15.80
2018-12-23T08:31:21.122Z,10.13
2018-12-23T08:33:49.147Z,12.37
2018-12-23T08:36:18.086Z,12.53
2018-12-23T08:38:47.148Z,16.50
2018-12-23T08:41:15.380Z,17.60
2018-12-23T08:43:44.074Z,17.60
2018-12-23T08:46:11.602Z,19.57
2018-12-23T08:48:39.106Z,16.07
2018-12-23T08:51:07.601Z,21.47
2018-12-23T08:53:36.075Z,20.30
2018-12-23T08:56:03.650Z,15.70
2018-12-23T08:58:31.151Z,16.00
2018-12-23T09:00:59.285Z,17.10
2018-12-23T09:03:28.478Z,16.10
2018-12-23T09:05:57.524Z,17.13
2018-12-23T09:08:25.953Z,23.93
2018-12-23T09:10:53.522Z,19.70
2018-12-23T09:13:21.022Z,21.77
2018-12-23T09:15:48.534Z,21.97
2018-12-23T09:18:19.452Z,29.00
2018-12-23T09:20:45.569Z,20.47
2018-12-23T09:23:13.073Z,19.67
2018-12-23T09:25:40.574Z,17.50
2018-12-23T09:28:08.977Z,18.80
2018-12-23T09:30:36.849Z,16.70
2018-12-23T09:33:04.359Z,17.40
2018-12-23T09:35:31.861Z,17.17
2018-12-23T09:38:01.526Z,19.47
2018-12-23T09:40:28.965Z,16.50
2018-12-23T09:42:56.474Z,15.63
2018-12-23T09:45:23.981Z,19.33
2018-12-23T09:47:51.570Z,15.90
2018-12-23T09:50:19.526Z,15.33
2018-12-23T09:52:47.037Z,21.80
2018-12-23T09:55:14.537Z,18.57
2018-12-23T09:57:42.038Z,14.93
2018-12-23T10:00:09.656Z,13.87
2018-12-23T10:02:37.677Z,41.20
2018-12-23T10:05:07.162Z,48.53
2018-12-23T10:07:36.254Z,29.17
2018-12-23T10:10:07.682Z,21.30
2018-12-23T10:12:35.187Z,24.37
2018-12-23T10:15:02.686Z,21.97
2018-12-23T10:17:30.189Z,25.47
2018-12-23T10:19:57.693Z,28.03
2018-12-23T10:22:25.191Z,24.10
2018-12-23T10:24:52.701Z,21.20
2018-12-23T10:27:20.205Z,22.50
2018-12-23T10:29:47.709Z,27.33
2018-12-23T10:32:15.214Z,28.07
2018-12-23T10:34:42.726Z,24.60
2018-12-23T10:37:10.566Z,20.33
2018-12-23T10:39:40.104Z,19.17
2018-12-23T10:42:07.698Z,22.87
2018-12-23T10:44:35.201Z,17.50
2018-12-23T10:47:02.781Z,18.70
2018-12-23T10:49:30.290Z,15.97
2018-12-23T10:51:57.789Z,15.80
2018-12-23T10:54:25.318Z,15.07
2018-12-23T10:56:52.930Z,17.10
2018-12-23T10:59:20.437Z,14.43
2018-12-23T11:01:48.907Z,14.57
2018-12-23T11:04:16.450Z,15.07
2018-12-23T11:06:43.956Z,13.50
2018-12-23T11:09:11.687Z,14.17
2018-12-23T11:11:39.194Z,14.20
2018-12-23T11:14:06.704Z,14.23
2018-12-23T11:16:34.207Z,14.60
2018-12-23T11:19:01.706Z,11.73
2018-12-23T11:21:29.213Z,14.17
2018-12-23T11:23:56.713Z,11.20
2018-12-23T11:26:24.336Z,13.07
2018-12-23T11:28:51.834Z,11.63
2018-12-23T11:31:19.329Z,10.77
2018-12-23T11:33:46.829Z,9.87
2018-12-23T11:36:14.461Z,12.97
2018-12-23T11:38:41.998Z,12.10
2018-12-23T11:41:09.497Z,10.17
2018-12-23T11:43:36.997Z,11.03
2018-12-23T11:46:04.498Z,11.23
2018-12-23T11:48:32.002Z,10.13
2018-12-23T11:50:59.494Z,9.13
2018-12-23T11:53:26.993Z,11.40
2018-12-23T11:55:54.498Z,9.90
2018-12-23T11:58:21.997Z,11.37
2018-12-23T12:00:49.818Z,8.90
2018-12-23T12:03:17.329Z,10.70
2018-12-23T12:05:44.826Z,8.80
2018-12-23T12:08:12.326Z,11.17
2018-12-23T12:10:39.825Z,11.87
2018-12-23T12:13:07.325Z,22.20
2018-12-23T12:15:34.825Z,17.53
2018-12-23T12:18:02.327Z,12.30
2018-12-23T12:20:29.835Z,18.87
2018-12-23T12:26:20.003Z,18.23
2018-12-23T12:29:00.799Z,18.33
2018-12-23T12:31:42.219Z,21.00
2018-12-23T12:34:23.376Z,19.13
2018-12-23T12:37:04.100Z,14.27
2018-12-23T12:39:42.903Z,17.80
2018-12-23T12:42:30.811Z,14.03
2018-12-23T12:45:12.107Z,13.57
2018-12-23T12:47:53.139Z,15.17
2018-12-23T12:50:33.559Z,17.33
2018-12-23T12:53:14.835Z,14.63
2018-12-23T12:55:55.957Z,15.80
2018-12-23T12:58:36.560Z,12.03
2018-12-23T13:01:15.423Z,11.70
2018-12-23T13:03:55.995Z,12.30
2018-12-23T13:06:36.447Z,10.60
2018-12-23T13:09:16.963Z,11.60
2018-12-23T13:11:57.843Z,13.47
2018-12-23T13:14:39.101Z,13.73
2018-12-23T13:17:20.411Z,13.80
2018-12-23T13:20:01.761Z,11.00
2018-12-23T13:22:42.248Z,18.00
2018-12-23T13:28:21.128Z,10.90
2018-12-23T13:31:01.575Z,16.03
2018-12-23T13:33:43.584Z,16.83
2018-12-23T13:36:24.220Z,16.07
2018-12-23T13:39:11.975Z,16.07
2018-12-23T13:41:52.499Z,14.27
2018-12-23T13:44:33.170Z,11.37
2018-12-23T13:47:14.228Z,14.53
2018-12-23T13:49:54.741Z,16.50
2018-12-23T13:52:35.507Z,12.83
2018-12-23T13:55:16.119Z,10.80
2018-12-23T13:57:57.468Z,8.47
2018-12-23T14:00:38.083Z,12.07
2018-12-23T14:03:19.429Z,10.93
2018-12-23T14:05:59.931Z,10.73
2018-12-23T14:08:40.387Z,10.37
2018-12-23T14:11:48.884Z,8.60
2018-12-23T14:14:36.792Z,8.30
2018-12-23T14:17:18.082Z,9.03
2018-12-23T14:19:58.664Z,9.03
2018-12-23T14:22:37.459Z,9.17
2018-12-23T14:25:25.343Z,7.90
2018-12-23T14:28:06.089Z,8.97
2018-12-23T14:30:47.395Z,8.50
2018-12-23T14:33:28.509Z,8.77
2018-12-23T14:36:28.276Z,8.00
2018-12-23T14:39:03.735Z,8.03
2018-12-23T14:41:44.691Z,8.07
2018-12-23T14:44:25.855Z,7.70
2018-12-23T14:47:07.172Z,7.43
2018-12-23T14:49:50.190Z,7.20
2018-12-23T14:52:30.519Z,6.83
2018-12-23T14:55:11.027Z,6.70
2018-12-23T14:57:52.210Z,5.33
2018-12-23T15:00:31.963Z,7.60
2018-12-23T15:06:21.241Z,9.73
2018-12-23T15:09:02.932Z,7.67
2018-12-23T15:11:43.686Z,18.13
2018-12-23T15:14:24.119Z,8.27
2018-12-23T15:17:05.435Z,10.73
2018-12-23T15:19:46.155Z,9.77
2018-12-23T15:22:26.980Z,10.47
2018-12-23T15:25:08.021Z,9.47
2018-12-23T15:27:49.358Z,9.73
2018-12-23T15:30:31.112Z,9.47
2018-12-23T15:33:12.240Z,11.23
2018-12-23T15:35:53.222Z,10.50
2018-12-23T15:38:33.872Z,8.43
2018-12-23T15:41:15.455Z,8.47
2018-12-23T15:43:56.205Z,10.17
2018-12-23T15:46:37.258Z,8.70
2018-12-23T15:49:18.501Z,7.47
2018-12-23T15:51:59.792Z,21.93
2018-12-23T15:54:46.215Z,21.03
2018-12-23T15:57:23.775Z,15.50
2018-12-23T16:00:04.729Z,10.87
2018-12-23T16:02:45.799Z,10.50
2018-12-23T16:05:26.847Z,8.87
2018-12-23T16:08:07.367Z,10.83
2018-12-23T16:10:48.315Z,11.00
2018-12-23T16:16:09.544Z,7.97
2018-12-23T16:18:57.452Z,9.63
2018-12-23T16:21:37.973Z,15.37
2018-12-23T16:24:18.378Z,12.07
2018-12-23T16:26:58.968Z,11.47
2018-12-23T16:29:40.311Z,8.73
2018-12-23T16:35:19.455Z,10.93
2018-12-23T16:38:00.507Z,10.30
2018-12-23T16:40:41.887Z,7.90
2018-12-23T16:43:23.285Z,8.67
2018-12-23T16:46:04.623Z,9.13
2018-12-23T16:48:45.985Z,9.90
2018-12-23T16:51:26.958Z,11.17
2018-12-23T16:54:08.036Z,10.03
2018-12-23T16:56:49.364Z,9.27
2018-12-23T16:59:28.179Z,10.07
2018-12-23T17:02:16.068Z,8.07
2018-12-23T17:04:57.021Z,8.27
2018-12-23T17:07:38.144Z,8.50
2018-12-23T17:10:19.236Z,9.47
2018-12-23T17:12:59.879Z,7.43
2018-12-23T17:15:38.792Z,7.10
2018-12-23T17:18:19.203Z,8.13
2018-12-23T17:20:59.967Z,6.50
2018-12-23T17:23:40.676Z,9.13
2018-12-23T17:26:19.543Z,6.87
2018-12-23T17:29:07.447Z,7.33
2018-12-23T17:31:48.488Z,8.03
2018-12-23T17:34:28.945Z,6.03
2018-12-23T17:37:09.414Z,8.53
2018-12-23T17:39:50.575Z,6.60
2018-12-23T17:42:32.119Z,7.23
2018-12-23T17:45:13.063Z,8.80
2018-12-23T17:47:53.731Z,8.30
2018-12-23T17:50:35.274Z,8.67
2018-12-23T17:53:16.210Z,9.00
2018-12-23T17:55:56.976Z,8.00
2018-12-23T17:58:37.791Z,6.47
2018-12-23T18:01:18.591Z,6.87
2018-12-23T18:04:02.472Z,7.07
2018-12-23T18:12:39.010Z,8.27
2018-12-23T18:15:20.147Z,6.00
2018-12-23T18:18:01.259Z,7.10
2018-12-23T18:20:41.980Z,7.87
2018-12-23T18:23:22.865Z,5.60
2018-12-23T18:26:03.802Z,6.80
2018-12-23T18:28:45.199Z,5.50
2018-12-23T18:31:26.465Z,5.33
2018-12-23T18:34:07.119Z,4.53
2018-12-23T18:36:47.951Z,4.20
2018-12-23T18:39:28.387Z,6.13
2018-12-23T18:42:09.659Z,41.97
2018-12-23T18:44:51.458Z,14.47
2018-12-23T18:47:33.254Z,16.57
2018-12-23T18:50:14.804Z,10.57
2018-12-23T18:52:55.923Z,7.50
2018-12-23T18:55:37.537Z,8.20
2018-12-23T18:58:18.368Z,7.17
2018-12-23T19:04:11.511Z,10.60
2018-12-23T19:06:52.731Z,7.73
2018-12-23T19:09:33.765Z,12.33
2018-12-23T19:12:15.000Z,38.03
2018-12-23T19:14:58.861Z,27.57
2018-12-23T19:17:39.508Z,23.77
2018-12-23T19:20:20.596Z,29.80
2018-12-23T19:23:01.353Z,30.10
2018-12-23T19:25:41.751Z,17.77
2018-12-23T19:28:22.706Z,27.83
2018-12-23T19:31:03.506Z,21.63
2018-12-23T19:33:44.694Z,34.73
2018-12-23T19:36:25.902Z,19.70
2018-12-23T19:39:06.539Z,20.07
2018-12-23T19:41:47.388Z,13.47
2018-12-23T19:44:27.887Z,16.60
2018-12-23T19:47:08.967Z,14.03
2018-12-23T19:49:51.707Z,12.53
2018-12-23T19:52:31.991Z,9.03
2018-12-23T19:55:13.472Z,9.90
2018-12-23T19:57:55.095Z,8.57
2018-12-23T20:00:36.371Z,12.03
2018-12-23T20:03:17.751Z,13.20
2018-12-23T20:05:59.177Z,11.00
2018-12-23T20:08:40.079Z,14.17
2018-12-23T20:11:20.511Z,5.97
2018-12-23T20:14:01.767Z,8.27
2018-12-23T20:16:45.557Z,11.00
2018-12-23T20:19:26.927Z,9.80
2018-12-23T20:22:07.445Z,8.30
2018-12-23T20:24:48.752Z,7.60
2018-12-23T20:27:29.871Z,10.83
2018-12-23T20:30:11.206Z,8.77
2018-12-23T20:32:51.669Z,6.27
2018-12-23T20:35:52.388Z,8.63
2018-12-23T20:41:47.396Z,6.20
2018-12-23T20:44:28.199Z,6.93
2018-12-23T20:47:09.116Z,6.37
2018-12-23T20:49:49.648Z,7.73
2018-12-23T20:52:30.239Z,6.47
2018-12-23T20:55:11.095Z,8.20
2018-12-23T20:57:52.252Z,7.20
2018-12-23T21:00:33.434Z,8.47
2018-12-23T21:03:14.439Z,6.20
2018-12-23T21:05:55.291Z,6.67
2018-12-23T21:08:37.083Z,6.60
2018-12-23T21:11:17.532Z,8.73
2018-12-23T21:13:58.787Z,7.37
2018-12-23T21:16:39.999Z,7.63
2018-12-23T21:19:21.392Z,5.03
2018-12-23T21:22:02.552Z,6.93
2018-12-23T21:24:43.231Z,5.60
2018-12-23T21:27:23.830Z,6.47
2018-12-23T21:30:04.787Z,7.23
2018-12-23T21:32:46.104Z,6.67
2018-12-23T21:35:27.020Z,5.60
2018-12-23T21:38:12.109Z,5.70
2018-12-23T21:40:50.457Z,7.03
2018-12-23T21:43:31.865Z,5.47
2018-12-23T21:46:12.679Z,5.03
2018-12-23T21:48:53.901Z,5.63
2018-12-23T21:51:35.415Z,5.77
2018-12-23T21:54:17.120Z,6.20
2018-12-23T21:56:58.188Z,4.90
2018-12-23T21:59:39.319Z,4.90
2018-12-23T22:02:21.182Z,4.93
2018-12-23T22:05:02.549Z,5.47
2018-12-23T22:07:43.868Z,4.07
2018-12-23T22:10:24.323Z,4.60
2018-12-23T22:13:04.936Z,4.30
2018-12-23T22:15:45.939Z,4.40
2018-12-23T22:18:26.658Z,4.10
2018-12-23T22:21:07.338Z,4.33
2018-12-23T22:23:47.911Z,4.03
2018-12-23T22:26:29.373Z,4.80
2018-12-23T22:29:10.303Z,5.07
2018-12-23T22:31:51.674Z,3.97
2018-12-23T22:34:32.643Z,4.10
2018-12-23T22:37:13.276Z,4.27
2018-12-23T22:39:54.644Z,4.20
2018-12-23T22:51:47.651Z,7.77
2018-12-23T22:54:31.068Z,3.80
2018-12-23T22:57:14.657Z,4.60
2018-12-23T22:59:56.573Z,4.03
2018-12-23T23:02:39.904Z,4.37
2018-12-23T23:05:32.655Z,6.90
2018-12-23T23:08:15.207Z,3.77
2018-12-23T23:10:56.044Z,4.70
2018-12-23T23:13:36.521Z,4.40
2018-12-23T23:16:17.171Z,5.10
2018-12-23T23:18:57.635Z,5.23
2018-12-23T23:21:38.959Z,4.37
2018-12-23T23:24:20.293Z,5.90
2018-12-23T23:27:00.907Z,3.87
2018-12-23T23:29:39.752Z,5.60
2018-12-23T23:32:20.659Z,3.70
2018-12-23T23:35:01.756Z,4.70
2018-12-23T23:37:42.871Z,5.13
2018-12-23T23:40:23.647Z,4.43
2018-12-23T23:43:04.843Z,5.60
2018-12-23T23:45:45.795Z,4.77
2018-12-23T23:48:26.295Z,6.17
2018-12-23T23:51:07.064Z,3.83
2018-12-23T23:53:47.973Z,5.50
2018-12-23T23:56:28.336Z,4.00
2018-12-23T23:59:08.891Z,4.50
